Time;durP1;ratioP1;P1;durP2;ratioP2;P2;SDS_P1;SDS_P2;PMS_P1;PMS_P2;Temp;Humidity;BMP_temperature;BMP_pressure;BME280_temperature;BME280_humidity;BME280_pressure;Samples;Min_cycle;Max_cycle;Signal;HPM_P1;HPM_P2
2022/04/11 00:01:37;;;;;;;1.70;1.30;;;;;;;11.23;57.92;100665.14;1632771;88;21047;-65
2022/04/11 00:04:05;;;;;;;1.75;1.40;;;;;;;11.22;58.17;100666.05;1632941;86;21578;-64
2022/04/11 00:06:34;;;;;;;1.67;1.12;;;;;;;11.16;57.85;100687.04;1632684;87;21067;-65
2022/04/11 00:09:02;;;;;;;3.25;1.10;;;;;;;11.08;57.48;100691.59;1632522;88;21035;-65
2022/04/11 00:11:29;;;;;;;1.25;1.15;;;;;;;11.01;57.67;100692.61;1632769;87;21031;-64
2022/04/11 00:13:58;;;;;;;3.00;1.50;;;;;;;10.98;58.08;100690.55;1632603;88;21669;-65
2022/04/11 00:16:26;;;;;;;1.20;1.10;;;;;;;10.97;57.75;100690.98;1627192;88;21079;-64
2022/04/11 00:18:53;;;;;;;1.20;1.10;;;;;;;10.95;58.00;100694.50;1632984;87;21579;-64
2022/04/11 00:21:22;;;;;;;1.27;1.17;;;;;;;10.94;58.04;100688.44;1632667;87;21047;-64
2022/04/11 00:23:49;;;;;;;1.20;1.10;;;;;;;10.86;58.44;100683.86;1632607;88;21067;-64
2022/04/11 00:26:16;;;;;;;1.40;1.30;;;;;;;10.96;58.08;100682.78;1632578;87;21147;-64
2022/04/11 00:28:45;;;;;;;3.12;1.20;;;;;;;10.97;57.64;100683.61;1632731;88;21063;-64
2022/04/11 00:31:12;;;;;;;1.67;1.32;;;;;;;10.94;57.80;100676.72;1633279;88;21019;-64
2022/04/11 00:33:40;;;;;;;1.67;1.57;;;;;;;10.92;57.37;100678.51;1632758;88;21027;-64
2022/04/11 00:36:07;;;;;;;1.12;1.02;;;;;;;10.87;57.60;100677.78;1632825;87;21094;-64
2022/04/11 00:38:34;;;;;;;1.47;1.12;;;;;;;10.84;57.45;100684.34;1633148;88;21051;-65
2022/04/11 00:41:02;;;;;;;1.70;1.30;;;;;;;10.85;57.53;100689.98;1632653;88;21115;-65
2022/04/11 00:43:35;;;;;;;1.30;1.05;;;;;;;10.84;57.79;100692.16;1632663;87;21023;-65
2022/04/11 00:46:02;;;;;;;0.80;0.80;;;;;;;10.84;57.83;100701.27;1632950;88;21554;-65
2022/04/11 00:48:32;;;;;;;0.95;0.95;;;;;;;10.82;57.54;100713.46;1632568;87;21067;-63
2022/04/11 00:51:07;;;;;;;1.15;1.05;;;;;;;10.80;56.94;100702.70;1632711;88;21583;-65
2022/04/11 00:53:38;;;;;;;2.25;0.90;;;;;;;10.77;56.76;100697.55;1632808;87;21602;-64
2022/04/11 00:56:06;;;;;;;1.15;0.90;;;;;;;10.71;56.62;100699.86;1632735;88;21571;-65
2022/04/11 00:58:34;;;;;;;0.80;0.80;;;;;;;10.66;57.13;100700.40;1632725;87;21115;-65
2022/04/11 01:01:01;;;;;;;0.95;0.90;;;;;;;10.62;57.12;100689.66;1633011;88;21046;-65
2022/04/11 01:03:29;;;;;;;0.90;0.90;;;;;;;10.61;57.09;100703.56;1632032;87;21191;-65
2022/04/11 01:05:55;;;;;;;0.80;0.80;;;;;;;10.60;56.94;100697.94;1606135;88;21591;-64
2022/04/11 01:08:23;;;;;;;0.88;0.65;;;;;;;10.58;56.76;100723.14;1631612;87;21094;-65
2022/04/11 01:10:52;;;;;;;0.70;0.70;;;;;;;10.59;56.85;100732.67;1631855;87;21543;-64
2022/04/11 01:13:19;;;;;;;1.00;0.72;;;;;;;10.61;57.02;100733.48;1620842;88;21566;-65
2022/04/11 01:15:59;;;;;;;0.50;0.50;;;;;;;10.62;56.80;100737.79;1631799;87;21551;-62
2022/04/11 01:18:27;;;;;;;0.65;0.62;;;;;;;10.63;56.93;100739.05;1521354;91;21202;-63
2022/04/11 01:20:54;;;;;;;0.60;0.60;;;;;;;10.65;56.85;100732.53;1534387;93;21087;-62
2022/04/11 01:23:21;;;;;;;0.80;0.60;;;;;;;10.64;56.21;100726.90;1563774;91;21108;-62
2022/04/11 01:25:50;;;;;;;2.52;0.68;;;;;;;10.62;56.02;100742.55;1565206;91;21597;-63
2022/04/11 01:28:18;;;;;;;0.50;0.50;;;;;;;10.62;56.54;100742.99;1562370;91;21180;-62
2022/04/11 01:30:45;;;;;;;0.65;0.65;;;;;;;10.60;56.37;100748.67;1567157;91;21057;-62
2022/04/11 01:33:21;;;;;;;1.17;0.60;;;;;;;10.63;56.92;100753.83;1558387;91;21120;-62
2022/04/11 01:35:47;;;;;;;0.75;0.60;;;;;;;10.64;55.96;100763.33;1563643;91;21652;-64
2022/04/11 01:38:14;;;;;;;0.75;0.72;;;;;;;10.63;56.46;100770.74;1563343;91;21097;-63
2022/04/11 01:40:52;;;;;;;0.60;0.60;;;;;;;10.62;55.97;100772.92;1564914;91;21099;-63
2022/04/11 01:43:20;;;;;;;0.60;0.50;;;;;;;10.61;55.77;100767.31;1565324;90;21057;-63
2022/04/11 01:45:48;;;;;;;0.50;0.50;;;;;;;10.60;55.83;100764.28;1565998;91;21087;-63
2022/04/11 01:48:16;;;;;;;0.53;0.53;;;;;;;10.59;55.92;100765.20;1565607;91;21600;-63
2022/04/11 01:50:44;;;;;;;0.47;0.40;;;;;;;10.59;55.60;100769.09;1558851;91;21137;-63
2022/04/11 01:53:13;;;;;;;0.50;0.50;;;;;;;10.55;55.41;100766.15;1564443;91;21129;-62
2022/04/11 01:55:41;;;;;;;0.40;0.40;;;;;;;10.53;55.91;100770.06;1562755;91;21097;-63
2022/04/11 01:58:09;;;;;;;0.50;0.50;;;;;;;10.51;55.85;100757.53;1566171;91;21584;-62
2022/04/11 02:00:37;;;;;;;0.42;0.42;;;;;;;10.52;55.99;100758.39;1565727;91;21096;-63
2022/04/11 02:03:05;;;;;;;0.40;0.40;;;;;;;10.54;55.69;100769.19;1549637;91;21688;-63
2022/04/11 02:05:32;;;;;;;0.50;0.50;;;;;;;10.54;55.61;100770.92;1550528;92;21676;-62
2022/04/11 02:08:00;;;;;;;1.67;0.50;;;;;;;10.53;55.74;100776.56;1550350;92;21562;-62
2022/04/11 02:10:28;;;;;;;0.70;0.62;;;;;;;10.52;55.54;100768.80;1548531;91;21246;-63
2022/04/11 02:12:56;;;;;;;0.72;0.70;;;;;;;10.54;56.34;100770.92;1549380;91;21537;-63
2022/04/11 02:15:23;;;;;;;0.50;0.50;;;;;;;10.54;56.01;100765.72;1609117;87;21049;-63
2022/04/11 02:17:50;;;;;;;0.62;0.60;;;;;;;10.53;55.63;100747.95;1643708;87;21052;-63
2022/04/11 02:20:18;;;;;;;0.70;0.68;;;;;;;10.53;56.24;100753.16;1643705;87;21061;-63
2022/04/11 02:22:55;;;;;;;0.78;0.62;;;;;;;10.53;55.97;100756.22;1643939;87;21044;-63
2022/04/11 02:25:27;;;;;;;0.50;0.50;;;;;;;10.54;56.15;100760.52;1638090;87;21068;-62
2022/04/11 02:27:55;;;;;;;0.60;0.60;;;;;;;10.54;55.96;100748.81;1596735;88;21083;-64
2022/04/11 02:30:25;;;;;;;2.12;0.75;;;;;;;10.52;55.58;100742.78;1617693;87;21023;-62
2022/04/11 02:32:55;;;;;;;0.85;0.60;;;;;;;10.47;55.63;100745.91;1569332;90;21126;-63
2022/04/11 02:35:22;;;;;;;0.90;0.70;;;;;;;10.48;56.10;100748.95;1568689;90;21129;-62
2022/04/11 02:37:51;;;;;;;0.70;0.70;;;;;;;10.45;55.86;100755.50;1569241;90;21057;-62
2022/04/11 02:40:18;;;;;;;0.60;0.60;;;;;;;10.46;56.14;100763.73;1558458;90;21092;-63
2022/04/11 02:43:04;;;;;;;1.95;0.78;;;;;;;10.46;56.53;100776.73;1559527;90;21149;-65
2022/04/11 02:45:33;;;;;;;1.45;0.88;;;;;;;10.49;56.79;100771.45;1569273;90;21108;-64
2022/04/11 02:48:00;;;;;;;0.70;0.70;;;;;;;10.49;55.98;100771.45;1566551;90;21100;-65
2022/04/11 02:50:30;;;;;;;1.65;0.70;;;;;;;10.49;56.27;100781.86;1555721;91;21049;-63
2022/04/11 02:52:58;;;;;;;1.20;0.72;;;;;;;10.49;55.97;100788.36;1572139;89;21077;-63
2022/04/11 02:55:26;;;;;;;0.98;0.55;;;;;;;10.49;56.09;100785.77;1568809;90;21061;-62
2022/04/11 02:57:54;;;;;;;0.60;0.60;;;;;;;10.50;55.83;100787.49;1589653;89;21093;-63
2022/04/11 03:00:22;;;;;;;0.80;0.70;;;;;;;10.51;55.84;100799.16;1568767;90;21665;-64
2022/04/11 03:02:58;;;;;;;0.60;0.50;;;;;;;10.51;55.61;100800.89;1566135;91;21117;-64
2022/04/11 03:05:28;;;;;;;1.47;0.50;;;;;;;10.52;55.57;100801.33;1584609;89;21184;-64
2022/04/11 03:07:55;;;;;;;0.60;0.60;;;;;;;10.54;55.77;100803.45;1584532;89;21574;-64
2022/04/11 03:10:22;;;;;;;0.68;0.40;;;;;;;10.57;55.86;100799.50;1584643;89;21046;-64
2022/04/11 03:12:51;;;;;;;0.78;0.50;;;;;;;10.58;55.71;100806.39;1573864;90;21074;-65
2022/04/11 03:15:18;;;;;;;0.75;0.75;;;;;;;10.58;55.60;100802.49;1584624;89;21058;-63
2022/04/11 03:17:45;;;;;;;0.95;0.80;;;;;;;10.58;55.52;100807.70;1584479;89;21078;-65
2022/04/11 03:20:13;;;;;;;2.05;0.60;;;;;;;10.55;55.08;100806.01;1584737;89;21074;-64
2022/04/11 03:22:42;;;;;;;2.17;0.75;;;;;;;10.55;55.40;100818.19;1584430;89;21042;-64
2022/04/11 03:25:11;;;;;;;0.78;0.62;;;;;;;10.55;55.40;100816.89;1639629;86;21046;-64
2022/04/11 03:27:38;;;;;;;0.80;0.70;;;;;;;10.58;55.27;100819.41;1663197;86;21125;-64
2022/04/11 03:30:08;;;;;;;1.67;0.80;;;;;;;10.58;55.28;100833.72;1663052;86;21100;-64
2022/04/11 03:32:36;;;;;;;0.88;0.80;;;;;;;10.62;55.65;100841.88;1641982;86;21542;-63
2022/04/11 03:35:07;;;;;;;1.17;0.88;;;;;;;10.63;55.32;100842.30;1662962;86;21045;-64
2022/04/11 03:37:34;;;;;;;1.55;0.80;;;;;;;10.62;55.43;100846.64;1663036;86;20974;-64
2022/04/11 03:40:06;;;;;;;0.72;0.72;;;;;;;10.63;55.35;100834.50;1659525;86;21066;-65
2022/04/11 03:42:33;;;;;;;1.63;1.10;;;;;;;10.64;55.42;100834.89;1663336;86;21054;-64
2022/04/11 03:45:00;;;;;;;1.20;1.00;;;;;;;10.63;54.75;100832.73;1662805;86;21062;-64
2022/04/11 03:47:29;;;;;;;0.72;0.72;;;;;;;10.63;55.22;100837.09;1662698;86;21050;-63
2022/04/11 03:49:55;;;;;;;1.00;0.80;;;;;;;10.63;55.05;100837.09;1663404;86;21022;-64
2022/04/11 03:52:26;;;;;;;0.80;0.80;;;;;;;10.64;54.74;100824.48;1660130;86;21594;-64
2022/04/11 03:54:54;;;;;;;1.45;0.98;;;;;;;10.63;54.97;100828.82;1662925;86;21039;-64
2022/04/11 03:57:22;;;;;;;1.00;1.00;;;;;;;10.63;55.09;100833.20;1642100;86;21066;-64
2022/04/11 03:59:52;;;;;;;1.32;0.98;;;;;;;10.63;54.84;100828.82;1657197;86;21022;-64
2022/04/11 04:02:19;;;;;;;2.02;0.90;;;;;;;10.64;55.10;100834.89;1641787;86;21111;-64
2022/04/11 04:04:46;;;;;;;1.75;0.90;;;;;;;10.63;54.91;100835.80;1673912;85;21073;-63
2022/04/11 04:07:13;;;;;;;1.00;0.93;;;;;;;10.65;55.15;100826.21;1675494;86;21149;-63
2022/04/11 04:09:40;;;;;;;2.12;1.10;;;;;;;10.67;55.43;100836.14;1675720;85;21560;-62
2022/04/11 04:12:09;;;;;;;0.85;0.78;;;;;;;10.67;55.40;100829.64;1657785;86;21561;-64
2022/04/11 04:14:38;;;;;;;4.20;0.85;;;;;;;10.65;55.29;100822.31;1672910;86;21045;-64
2022/04/11 04:17:06;;;;;;;1.27;1.17;;;;;;;10.68;55.17;100821.36;1675782;85;21112;-63
2022/04/11 04:19:37;;;;;;;0.85;0.85;;;;;;;10.68;54.98;100825.27;1666646;86;21129;-64
2022/04/11 04:22:06;;;;;;;0.98;0.80;;;;;;;10.68;54.96;100827.43;1671615;86;21021;-64
2022/04/11 04:24:36;;;;;;;3.70;0.90;;;;;;;10.66;55.34;100839.63;1675882;85;21066;-64
2022/04/11 04:27:06;;;;;;;2.17;1.40;;;;;;;10.67;55.24;100837.45;1675970;86;21038;-64
2022/04/11 04:29:36;;;;;;;1.30;1.02;;;;;;;10.70;55.38;100850.37;1675764;85;21002;-64
2022/04/11 04:32:04;;;;;;;0.95;0.95;;;;;;;10.73;55.36;100846.42;1675760;86;21065;-65
2022/04/11 04:34:31;;;;;;;3.65;1.10;;;;;;;10.75;55.12;100852.89;1675843;85;21077;-64
2022/04/11 04:37:00;;;;;;;2.80;1.30;;;;;;;10.78;55.11;100870.59;1674949;85;21557;-65
2022/04/11 04:39:27;;;;;;;1.00;0.90;;;;;;;10.80;54.68;100870.11;1675678;86;21062;-64
2022/04/11 04:41:54;;;;;;;1.17;1.07;;;;;;;10.82;54.80;100856.63;1675508;86;21062;-64
2022/04/11 04:44:22;;;;;;;0.80;0.80;;;;;;;10.85;54.81;100851.37;1675903;85;21574;-63
2022/04/11 04:46:51;;;;;;;1.42;1.10;;;;;;;10.88;54.70;100864.30;1665508;86;21045;-62
2022/04/11 04:49:23;;;;;;;1.42;1.27;;;;;;;10.92;54.66;100875.06;1673139;86;21045;-63
2022/04/11 04:51:52;;;;;;;1.12;1.00;;;;;;;10.98;54.50;100878.00;1675780;85;21069;-64
2022/04/11 04:54:18;;;;;;;1.25;1.05;;;;;;;11.02;54.44;100869.23;1648954;86;21033;-62
2022/04/11 04:56:49;;;;;;;1.37;1.20;;;;;;;11.05;54.54;100876.52;1675681;86;21026;-62
2022/04/11 04:59:16;;;;;;;2.05;1.37;;;;;;;11.09;54.94;100854.73;1671334;85;21058;-63
2022/04/11 05:01:43;;;;;;;2.72;1.40;;;;;;;11.11;54.90;100850.34;1675701;86;21045;-64
2022/04/11 05:04:10;;;;;;;1.50;1.40;;;;;;;11.13;54.36;100844.66;1669085;85;21101;-63
2022/04/11 05:06:39;;;;;;;1.57;1.47;;;;;;;11.13;54.71;100849.86;1662658;86;21096;-64
2022/04/11 05:09:08;;;;;;;3.02;1.47;;;;;;;11.13;54.31;100835.54;1662799;86;21086;-64
2022/04/11 05:11:35;;;;;;;1.40;1.30;;;;;;;11.12;54.48;100837.75;1663113;86;21050;-63
2022/04/11 05:14:02;;;;;;;1.42;1.20;;;;;;;11.13;55.05;100836.84;1663060;86;21026;-64
2022/04/11 05:16:31;;;;;;;2.85;1.65;;;;;;;11.14;55.08;100830.76;1662748;86;21022;-62
2022/04/11 05:18:58;;;;;;;6.45;1.65;;;;;;;11.16;54.28;100826.38;1662731;86;21105;-65
2022/04/11 05:21:27;;;;;;;2.17;1.35;;;;;;;11.16;53.94;100834.19;1662707;86;21622;-64
2022/04/11 05:23:54;;;;;;;3.55;1.82;;;;;;;11.14;54.41;100825.55;1663311;86;21086;-65
2022/04/11 05:26:22;;;;;;;2.25;1.37;;;;;;;11.13;54.12;100829.03;1662752;86;21558;-64
2022/04/11 05:28:50;;;;;;;1.87;1.22;;;;;;;11.17;54.27;100840.26;1663006;86;21034;-64
2022/04/11 05:31:18;;;;;;;2.20;1.70;;;;;;;11.19;53.93;100823.68;1662714;86;21089;-65
2022/04/11 05:33:45;;;;;;;2.17;1.65;;;;;;;11.19;53.76;100835.40;1663104;86;21078;-64
2022/04/11 05:36:15;;;;;;;2.37;1.57;;;;;;;11.22;53.90;100837.08;1663111;86;20994;-65
2022/04/11 05:38:43;;;;;;;1.50;1.40;;;;;;;11.24;54.10;100841.38;1662751;86;21546;-64
2022/04/11 05:41:12;;;;;;;1.82;1.30;;;;;;;11.28;54.05;100831.73;1662896;86;21093;-64
2022/04/11 05:43:44;;;;;;;1.70;1.30;;;;;;;11.30;53.52;100829.51;1659623;86;21015;-65
2022/04/11 05:46:11;;;;;;;2.15;1.60;;;;;;;11.32;53.50;100825.12;1662989;85;21069;-64
2022/04/11 05:48:40;;;;;;;2.70;1.50;;;;;;;11.34;53.94;100825.94;1662721;86;21046;-61
2022/04/11 05:51:07;;;;;;;1.98;1.62;;;;;;;11.35;53.32;100798.14;1662918;86;21081;-65
2022/04/11 05:53:35;;;;;;;1.77;1.60;;;;;;;11.35;53.22;100826.33;1663024;86;21046;-64
2022/04/11 05:56:04;;;;;;;1.50;1.40;;;;;;;11.38;53.58;100820.20;1663087;86;21542;-63
2022/04/11 05:58:31;;;;;;;3.90;1.82;;;;;;;11.40;53.20;100816.67;1663398;86;20994;-61
2022/04/11 06:01:00;;;;;;;2.47;1.55;;;;;;;11.41;53.27;100812.32;1662775;86;21483;-64
2022/04/11 06:03:28;;;;;;;4.95;1.62;;;;;;;11.40;53.03;100825.79;1642776;85;21113;-64
2022/04/11 06:05:55;;;;;;;2.90;1.60;;;;;;;11.39;53.71;100817.58;1675518;84;21505;-64
2022/04/11 06:08:22;;;;;;;1.57;1.47;;;;;;;11.44;53.77;100821.35;1675771;86;21053;-63
2022/04/11 06:10:48;;;;;;;1.62;1.42;;;;;;;11.48;53.82;100835.19;1675803;85;21049;-63
2022/04/11 06:13:17;;;;;;;1.45;1.20;;;;;;;11.50;53.74;100825.58;1671539;86;21018;-64
2022/04/11 06:15:47;;;;;;;2.90;1.70;;;;;;;11.51;53.99;100823.37;1656592;86;21022;-64
2022/04/11 06:18:14;;;;;;;1.62;1.47;;;;;;;11.51;53.57;100832.05;1675438;86;21029;-64
2022/04/11 06:20:45;;;;;;;1.85;1.30;;;;;;;11.53;52.90;100823.75;1658389;86;20997;-64
2022/04/11 06:23:13;;;;;;;5.75;1.47;;;;;;;11.54;53.48;100841.08;1675549;85;21096;-64
2022/04/11 06:25:40;;;;;;;2.35;1.62;;;;;;;11.54;52.97;100851.97;1675664;86;21034;-62
2022/04/11 06:28:08;;;;;;;3.95;1.15;;;;;;;11.55;53.78;100860.19;1676023;85;21037;-64
2022/04/11 06:30:38;;;;;;;3.12;1.60;;;;;;;11.53;52.97;100833.30;1675577;86;21030;-64
2022/04/11 06:33:05;;;;;;;1.30;1.15;;;;;;;11.52;52.54;100834.22;1676363;86;21037;-63
2022/04/11 06:35:32;;;;;;;2.17;1.32;;;;;;;11.50;53.09;100825.58;1675643;85;21025;-64
2022/04/11 06:37:59;;;;;;;2.00;1.40;;;;;;;11.52;53.52;100844.64;1675813;86;21048;-63
2022/04/11 06:40:26;;;;;;;2.30;1.52;;;;;;;11.52;52.78;100852.45;1675774;85;21037;-63
2022/04/11 06:42:53;;;;;;;2.02;1.20;;;;;;;11.54;53.21;100853.27;1675711;86;21541;-64
2022/04/11 06:45:38;;;;;;;1.90;1.45;;;;;;;11.56;53.02;100861.91;1658291;85;21080;-64
2022/04/11 06:48:07;;;;;;;3.08;1.62;;;;;;;11.59;53.37;100860.08;1675650;86;21095;-64
2022/04/11 06:50:34;;;;;;;2.10;1.85;;;;;;;11.64;53.07;100868.66;1676204;85;21500;-64
2022/04/11 06:53:01;;;;;;;2.15;1.17;;;;;;;11.66;53.21;100868.61;1676090;86;21081;-63
2022/04/11 06:55:28;;;;;;;4.62;2.47;;;;;;;11.70;52.61;100858.55;1675626;86;21089;-64
2022/04/11 06:57:55;;;;;;;3.25;2.25;;;;;;;11.72;52.39;100869.80;1675892;85;21034;-64
2022/04/11 07:00:22;;;;;;;3.95;2.87;;;;;;;11.72;52.24;100875.02;1675576;86;21537;-64
2022/04/11 07:02:49;;;;;;;1.77;1.12;;;;;;;11.74;52.59;100880.61;1675621;85;21581;-64
2022/04/11 07:05:16;;;;;;;2.00;1.27;;;;;;;11.75;52.15;100880.13;1666642;85;21038;-64
2022/04/11 07:07:43;;;;;;;1.87;1.40;;;;;;;11.75;52.30;100871.88;1662934;86;21109;-65
2022/04/11 07:10:10;;;;;;;2.22;1.17;;;;;;;11.78;52.70;100876.16;1663037;86;21038;-64
2022/04/11 07:12:39;;;;;;;2.90;2.10;;;;;;;11.80;52.49;100871.77;1662752;86;21086;-63
2022/04/11 07:15:08;;;;;;;1.80;1.42;;;;;;;11.83;52.88;100867.80;1662843;86;21447;-63
2022/04/11 07:17:37;;;;;;;3.10;1.20;;;;;;;11.87;52.45;100878.55;1657223;86;21018;-64
2022/04/11 07:20:05;;;;;;;2.00;1.27;;;;;;;11.93;52.30;100864.06;1663371;86;21077;-63
2022/04/11 07:22:34;;;;;;;4.62;2.62;;;;;;;11.97;52.26;100871.73;1662202;86;20990;-64
2022/04/11 07:25:02;;;;;;;1.50;1.30;;;;;;;12.00;51.84;100866.90;1662736;86;21086;-64
2022/04/11 07:27:29;;;;;;;1.77;1.12;;;;;;;12.01;52.02;100879.06;1662929;86;21050;-64
2022/04/11 07:29:57;;;;;;;1.60;1.20;;;;;;;12.04;52.00;100873.75;1662904;86;21558;-63
2022/04/11 07:32:23;;;;;;;1.52;1.30;;;;;;;12.06;52.18;100868.91;1663038;86;21078;-63
2022/04/11 07:34:50;;;;;;;2.40;1.10;;;;;;;12.08;51.56;100842.34;1662802;86;21069;-64
2022/04/11 07:37:17;;;;;;;3.27;1.60;;;;;;;12.12;51.88;100850.92;1663103;86;21039;-64
2022/04/11 07:39:45;;;;;;;2.70;1.30;;;;;;;12.16;51.66;100857.77;1662680;86;21547;-64
2022/04/11 07:42:14;;;;;;;1.92;1.57;;;;;;;12.19;51.47;100859.02;1663195;86;21054;-64
2022/04/11 07:44:41;;;;;;;3.05;2.55;;;;;;;12.21;51.21;100858.52;1660465;86;21070;-64
2022/04/11 07:47:08;;;;;;;15.72;4.75;;;;;;;12.23;52.07;100874.98;1662862;86;21006;-63
2022/04/11 07:49:36;;;;;;;6.50;3.92;;;;;;;12.27;51.72;100868.80;1663076;86;21037;-63
2022/04/11 07:52:04;;;;;;;1.92;1.62;;;;;;;12.29;51.43;100860.47;1662898;86;21034;-64
2022/04/11 07:54:31;;;;;;;5.75;4.25;;;;;;;12.32;50.85;100860.84;1663073;86;21069;-62
2022/04/11 07:56:58;;;;;;;2.65;1.25;;;;;;;12.34;51.90;100869.05;1663082;86;21605;-64
2022/04/11 07:59:26;;;;;;;2.17;1.35;;;;;;;12.39;50.79;100868.45;1662890;86;21053;-64
2022/04/11 08:01:52;;;;;;;2.02;1.20;;;;;;;12.43;50.60;100878.35;1663275;85;21574;-63
2022/04/11 08:04:19;;;;;;;2.45;1.45;;;;;;;12.45;50.30;100881.33;1665289;85;21073;-63
2022/04/11 08:06:47;;;;;;;3.52;2.47;;;;;;;12.50;50.23;100884.69;1675458;86;21050;-64
2022/04/11 08:09:14;;;;;;;2.98;1.65;;;;;;;12.55;50.51;100895.01;1676115;86;21053;-64
2022/04/11 08:11:42;;;;;;;5.60;2.15;;;;;;;12.58;50.13;100890.55;1675591;85;21037;-64
2022/04/11 08:14:10;;;;;;;1.92;1.60;;;;;;;12.62;50.04;100885.66;1675555;86;21022;-64
2022/04/11 08:16:38;;;;;;;1.82;1.60;;;;;;;12.65;50.02;100895.98;1675567;85;21073;-64
2022/04/11 08:19:06;;;;;;;2.20;1.92;;;;;;;12.69;49.72;100888.52;1676149;86;21498;-63
2022/04/11 08:21:33;;;;;;;2.77;1.57;;;;;;;12.73;49.68;100891.44;1675861;86;21017;-63
2022/04/11 08:24:02;;;;;;;2.65;1.30;;;;;;;12.79;49.59;100895.18;1675503;85;21569;-63
2022/04/11 08:26:29;;;;;;;1.67;1.20;;;;;;;12.81;49.28;100901.22;1675642;86;21054;-63
2022/04/11 08:28:56;;;;;;;2.40;1.45;;;;;;;12.83;49.27;100905.94;1672847;86;21074;-63
2022/04/11 08:31:22;;;;;;;2.10;1.22;;;;;;;12.85;49.67;100926.34;1675741;85;21030;-64
2022/04/11 08:33:49;;;;;;;1.80;1.60;;;;;;;12.86;49.42;100935.87;1675421;86;21081;-63
2022/04/11 08:36:16;;;;;;;2.30;1.60;;;;;;;12.85;49.65;100926.78;1675770;85;21033;-63
2022/04/11 08:38:44;;;;;;;1.60;1.27;;;;;;;12.84;49.18;100948.12;1675748;86;21049;-64
2022/04/11 08:41:17;;;;;;;1.60;1.32;;;;;;;12.82;49.03;100948.61;1676099;86;21084;-64
2022/04/11 08:43:44;;;;;;;;;;;;;;;12.82;50.02;100938.16;1678188;85;21069;-63
2022/04/11 08:46:12;;;;;;;1.42;1.12;;;;;;;12.81;49.11;100932.98;1675844;86;20109;-64
2022/04/11 08:48:39;;;;;;;2.02;1.02;;;;;;;12.82;49.15;100944.69;1675716;85;21585;-63
2022/04/11 08:51:07;;;;;;;1.57;1.05;;;;;;;12.84;49.09;100940.28;1675780;86;21042;-64
2022/04/11 08:53:34;;;;;;;2.98;1.00;;;;;;;12.86;48.85;100931.95;1675500;85;21533;-64
2022/04/11 08:56:01;;;;;;;3.12;1.10;;;;;;;12.90;49.38;100929.66;1675475;86;22149;-64
2022/04/11 08:58:28;;;;;;;5.58;1.20;;;;;;;12.91;48.63;100932.69;1669735;85;21026;-63
2022/04/11 09:00:54;;;;;;;3.02;1.32;;;;;;;12.93;48.54;100934.81;1675495;86;21042;-65
2022/04/11 09:03:21;;;;;;;2.83;1.20;;;;;;;12.96;49.30;100934.70;1676084;86;21040;-64
2022/04/11 09:06:10;;;;;;;7.42;1.85;;;;;;;12.99;49.09;100929.41;1675703;84;21134;-63
2022/04/11 09:08:42;;;;;;;2.92;1.12;;;;;;;13.02;48.57;100925.39;1649402;86;21063;-63
2022/04/11 09:11:09;;;;;;;3.87;1.10;;;;;;;13.06;48.74;100941.41;1675367;84;21015;-63
2022/04/11 09:13:48;;;;;;;3.12;1.15;;;;;;;13.08;48.60;100929.16;1675754;84;21023;-63
2022/04/11 09:16:15;;;;;;;2.62;1.15;;;;;;;13.13;48.42;100921.66;1676081;86;21034;-63
2022/04/11 09:18:52;;;;;;;2.05;1.35;;;;;;;13.14;48.54;100922.05;1676180;84;21102;-63
2022/04/11 09:21:23;;;;;;;1.65;1.40;;;;;;;13.16;49.15;100920.25;1650505;86;21455;-63
2022/04/11 09:23:51;;;;;;;1.52;1.10;;;;;;;13.20;49.12;100914.03;1675845;84;21035;-63
2022/04/11 09:26:23;;;;;;;2.65;1.15;;;;;;;13.22;48.68;100913.53;1676019;84;21078;-64
2022/04/11 09:29:04;;;;;;;4.53;1.20;;;;;;;13.24;48.79;100909.12;1676201;86;21039;-63
2022/04/11 09:31:31;;;;;;;6.17;1.10;;;;;;;13.30;48.41;100898.48;1671639;86;21054;-63
2022/04/11 09:34:01;;;;;;;3.72;1.80;;;;;;;13.38;48.31;100905.63;1675731;86;21078;-63
2022/04/11 09:36:50;;;;;;;2.67;0.93;;;;;;;13.41;47.40;100909.03;1593765;90;21063;-62
2022/04/11 09:39:23;;;;;;;1.70;1.42;;;;;;;13.48;47.30;100899.21;1593646;89;21112;-63
2022/04/11 09:41:50;;;;;;;2.72;1.02;;;;;;;13.51;47.62;100920.05;1594117;90;21019;-63
2022/04/11 09:44:32;;;;;;;6.33;1.37;;;;;;;13.55;48.26;100919.05;1593850;90;21072;-63
2022/04/11 09:47:01;;;;;;;1.62;1.25;;;;;;;13.56;48.02;100918.16;1593673;88;21104;-63
2022/04/11 09:49:30;;;;;;;1.92;1.22;;;;;;;13.57;47.87;100915.93;1591180;90;21076;-65
2022/04/11 09:52:14;;;;;;;1.42;1.20;;;;;;;13.55;46.96;100916.43;1594017;89;21031;-63
2022/04/11 09:54:44;;;;;;;3.33;1.47;;;;;;;13.52;47.75;100933.50;1593744;89;21604;-63
2022/04/11 09:57:15;;;;;;;5.05;1.55;;;;;;;13.50;47.73;100927.02;1593691;89;21527;-62
2022/04/11 09:59:43;;;;;;;2.70;1.40;;;;;;;13.50;47.99;100923.55;1593979;90;21016;-65
2022/04/11 10:02:11;;;;;;;7.78;1.40;;;;;;;13.52;47.99;100929.58;1593467;89;21060;-62
2022/04/11 10:04:39;;;;;;;4.05;1.50;;;;;;;13.53;47.65;100929.56;1594388;89;21028;-63
2022/04/11 10:07:12;;;;;;;1.87;1.30;;;;;;;13.54;47.20;100921.27;1593289;90;21152;-63
2022/04/11 10:09:39;;;;;;;1.55;1.30;;;;;;;13.53;46.58;100930.86;1598508;90;21043;-63
2022/04/11 10:12:09;;;;;;;3.33;1.70;;;;;;;13.56;47.16;100932.06;1592620;90;21638;-62
2022/04/11 10:14:37;;;;;;;2.15;1.55;;;;;;;13.65;47.08;100927.00;1634327;87;21071;-63
2022/04/11 10:17:05;;;;;;;2.42;1.30;;;;;;;13.73;46.27;100925.00;1643491;87;21064;-63
2022/04/11 10:19:37;;;;;;;3.58;1.67;;;;;;;13.83;47.23;100941.66;1643826;87;21008;-62
2022/04/11 10:22:07;;;;;;;2.35;1.60;;;;;;;13.85;47.18;100929.83;1639434;87;21114;-62
2022/04/11 10:24:39;;;;;;;3.55;1.37;;;;;;;13.82;47.29;100922.97;1643575;87;21086;-63
2022/04/11 10:27:20;;;;;;;2.90;1.75;;;;;;;13.81;47.32;100929.53;1596879;88;21085;-63
2022/04/11 10:29:49;;;;;;;2.92;1.90;;;;;;;13.80;47.58;100920.85;1596815;89;21416;-64
2022/04/11 10:32:28;;;;;;;2.70;1.62;;;;;;;13.78;47.43;100937.05;1596599;89;21092;-63
2022/04/11 10:35:04;;;;;;;3.80;2.12;;;;;;;13.74;46.91;100925.41;1597094;89;21153;-63
2022/04/11 10:37:48;;;;;;;4.30;1.70;;;;;;;13.73;47.10;100921.94;1598282;89;21020;-63
2022/04/11 10:40:24;;;;;;;2.45;1.65;;;;;;;13.76;46.93;100920.99;1598533;88;21075;-64
2022/04/11 10:43:08;;;;;;;2.05;1.77;;;;;;;13.80;46.57;100926.52;1598496;89;21135;-64
2022/04/11 10:45:57;;;;;;;2.70;2.00;;;;;;;13.86;46.93;100917.17;1597984;88;21079;-64
2022/04/11 10:48:57;;;;;;;1.98;1.75;;;;;;;13.88;46.13;100929.30;1572260;90;21651;-64
2022/04/11 10:51:24;;;;;;;6.53;2.65;;;;;;;13.84;46.91;100938.59;1549729;91;21121;-63
2022/04/11 10:54:19;;;;;;;2.17;1.70;;;;;;;13.87;46.42;100930.64;1549533;92;21087;-62
2022/04/11 10:56:52;;;;;;;2.52;1.80;;;;;;;13.93;45.94;100933.05;1549741;91;21089;-64
2022/04/11 10:59:28;;;;;;;3.37;2.08;;;;;;;14.04;46.88;100937.48;1510937;94;21360;-65
2022/04/11 11:01:56;;;;;;;3.42;1.70;;;;;;;14.09;46.36;100932.11;1510996;94;21317;-64
2022/04/11 11:04:25;;;;;;;3.30;1.92;;;;;;;14.12;46.30;100938.09;1511228;94;21072;-64
2022/04/11 11:07:23;;;;;;;2.98;1.87;;;;;;;14.15;47.40;100943.23;1490842;94;21132;-64
2022/04/11 11:10:00;;;;;;;3.35;2.17;;;;;;;14.16;48.03;100951.47;1499503;94;21085;-63
2022/04/11 11:12:27;;;;;;;3.30;1.98;;;;;;;14.18;47.34;100944.91;1503184;95;21686;-64
2022/04/11 11:14:55;;;;;;;2.30;2.08;;;;;;;14.17;47.25;100948.41;1491618;95;21152;-63
2022/04/11 11:17:56;;;;;;;3.05;2.12;;;;;;;14.13;47.46;100952.91;1481971;96;21173;-64
2022/04/11 11:20:25;;;;;;;4.53;2.20;;;;;;;14.08;47.13;100946.95;1471828;96;21208;-63
2022/04/11 11:23:17;;;;;;;3.17;2.20;;;;;;;14.02;47.63;100962.85;1485482;93;21621;-64
2022/04/11 11:25:46;;;;;;;2.90;2.10;;;;;;;13.96;47.38;100963.05;1530828;92;21073;-61
2022/04/11 11:28:15;;;;;;;3.12;2.27;;;;;;;13.95;47.86;100957.88;1536159;93;21583;-63
2022/04/11 11:30:43;;;;;;;3.42;2.05;;;;;;;13.95;47.79;100971.79;1520816;92;21137;-63
2022/04/11 11:33:15;;;;;;;3.62;2.45;;;;;;;13.94;46.92;100972.70;1530799;94;22588;-62
2022/04/11 11:35:51;;;;;;;2.70;1.90;;;;;;;13.95;46.99;100978.33;1531290;94;21091;-63